NOAA Web Site Link Tides and Currents Home Page Transparent placeholder image

PORTS® Data Listing: 8551910 Reedy Point, DE

CO-OPS RAW PORTS DATA

************************      PRELIMINARY DATA      ************************** 

     THIS RAW DATA HAS NOT BEEN SUBJECT TO THE NATIONAL OCEAN SERVICE'S        
     QUALITY CONTROL OR QUALITY ASSURANCE PROCEDURES AND DOES NOT MEET         
     THE CRITERIA AND STANDARDS OF OFFICIAL NATIONAL OCEAN SERVICE             
     DATA.  IT IS RELEASED FOR LIMITED PUBLIC USE AS PRELIMINARY DATA TO       
     BE USED ONLY WITH APPROPRIATE CAUTION.                                    

************************      PRELIMINARY DATA      ************************** 


       CD   -   Calendar date
       T    -   Time
       TZ   -   Timezone
       PW   -   Predicted water level (feet above MLLW)
       OW   -   Observed water level (feet above MLLW)
       WS   -   Wind speed (knots)
       WD   -   Wind direction (degrees true)
       WG   -   Wind gust (knots)
       AT   -   Air temperature (degrees farenheit)
       WT   -   Water temperature (degrees farenheit)
       AP   -   Air pressure (millibars)
       SA   -   Salinty (PSU - Practical Salinity Units)
       SG   -   Specific gravity
       RH   -   Relative humidity
       AG   -   Air gap (feet)
       VI   -   Visibility (nautical miles)

       ** NOTE **
       A variable that has its data fields filled with "9"s, indicates that
       data was not collected for that sample period.
       **********


STATION NAME: Reedy Point (8551910)
****************************************************************************************************
    CD       T    TZ    PW     OW    WS   WD   WG    AT    WT    AP    SA    SG     RH    AG   VI
****************************************************************************************************
2018/01/17 13:00 EST    4.46   4.40 -999 -999 -999  24.6  32.3 1025.7 -9.9 -9.999 -99.9 -99.99 -9.99
2018/01/17 13:06 EST    4.35   4.27 -999 -999 -999  24.5  32.3 1025.5 -9.9 -9.999 -99.9 -99.99 -9.99
2018/01/17 13:12 EST    4.23   4.17 -999 -999 -999  24.4  32.3 1025.6 -9.9 -9.999 -99.9 -99.99 -9.99
2018/01/17 13:18 EST    4.12   4.06 -999 -999 -999  24.7  32.3 1025.5 -9.9 -9.999 -99.9 -99.99 -9.99
2018/01/17 13:24 EST    4.00   3.94 -999 -999 -999  24.6  32.3 1025.3 -9.9 -9.999 -99.9 -99.99 -9.99
2018/01/17 13:30 EST    3.88   3.82 -999 -999 -999  24.8  32.3 1025.4 -9.9 -9.999 -99.9 -99.99 -9.99
2018/01/17 13:36 EST    3.76   3.71 -999 -999 -999  24.5  32.4 1025.5 -9.9 -9.999 -99.9 -99.99 -9.99
2018/01/17 13:42 EST    3.64   3.58 -999 -999 -999  24.6  32.4 1025.5 -9.9 -9.999 -99.9 -99.99 -9.99
2018/01/17 13:48 EST    3.52   3.47 -999 -999 -999  24.4  32.4 1025.5 -9.9 -9.999 -99.9 -99.99 -9.99
2018/01/17 13:54 EST    3.39   3.36 -999 -999 -999  24.8  32.4 1025.5 -9.9 -9.999 -99.9 -99.99 -9.99
2018/01/17 14:00 EST    3.27   3.24 -999 -999 -999  24.5  32.4 1025.3 -9.9 -9.999 -99.9 -99.99 -9.99
2018/01/17 14:06 EST    3.15   3.12 -999 -999 -999  24.7  32.4 1025.3 -9.9 -9.999 -99.9 -99.99 -9.99
2018/01/17 14:12 EST    3.03   3.01 -999 -999 -999  24.4  32.4 1025.3 -9.9 -9.999 -99.9 -99.99 -9.99
2018/01/17 14:18 EST    2.91   2.90 -999 -999 -999  24.5  32.4 1025.2 -9.9 -9.999 -99.9 -99.99 -9.99
2018/01/17 14:24 EST    2.79   2.80 -999 -999 -999  24.3  32.4 1025.3 -9.9 -9.999 -99.9 -99.99 -9.99
2018/01/17 14:30 EST    2.67   2.70 -999 -999 -999  24.3  32.4 1025.3 -9.9 -9.999 -99.9 -99.99 -9.99
2018/01/17 14:36 EST    2.56   2.60 -999 -999 -999  24.3  32.4 1025.2 -9.9 -9.999 -99.9 -99.99 -9.99
2018/01/17 14:42 EST    2.44   2.50 -999 -999 -999  24.3  32.4 1025.1 -9.9 -9.999 -99.9 -99.99 -9.99
2018/01/17 14:48 EST    2.33   2.41 -999 -999 -999  24.3  32.4 1025.1 -9.9 -9.999 -99.9 -99.99 -9.99
2018/01/17 14:54 EST    2.22   2.32 -999 -999 -999  24.6  32.4 1024.9 -9.9 -9.999 -99.9 -99.99 -9.99
2018/01/17 15:00 EST    2.12   2.22 -999 -999 -999  24.4  32.3 1024.8 -9.9 -9.999 -99.9 -99.99 -9.99
2018/01/17 15:06 EST    2.01   2.13 -999 -999 -999  24.3  32.4 1024.8 -9.9 -9.999 -99.9 -99.99 -9.99
2018/01/17 15:12 EST    1.91   2.04 -999 -999 -999  24.2  32.5 1024.7 -9.9 -9.999 -99.9 -99.99 -9.99
2018/01/17 15:18 EST    1.81   1.96 -999 -999 -999  24.2  32.5 1024.6 -9.9 -9.999 -99.9 -99.99 -9.99
2018/01/17 15:24 EST    1.71   1.89 -999 -999 -999  24.1  32.4 1024.5 -9.9 -9.999 -99.9 -99.99 -9.99
2018/01/17 15:30 EST    1.62   1.77 -999 -999 -999  24.2  32.3 1024.6 -9.9 -9.999 -99.9 -99.99 -9.99
2018/01/17 15:36 EST    1.52   1.67 -999 -999 -999  24.1  32.3 1024.7 -9.9 -9.999 -99.9 -99.99 -9.99
2018/01/17 15:42 EST    1.43   1.61 -999 -999 -999  24.3  32.5 1024.8 -9.9 -9.999 -99.9 -99.99 -9.99
2018/01/17 15:48 EST    1.34   1.49 -999 -999 -999  24.3  32.5 1025.0 -9.9 -9.999 -99.9 -99.99 -9.99
2018/01/17 15:54 EST    1.25   1.42 -999 -999 -999  24.2  32.4 1025.0 -9.9 -9.999 -99.9 -99.99 -9.99
2018/01/17 16:00 EST    1.16   1.34 -999 -999 -999  24.1  32.3 1025.0 -9.9 -9.999 -99.9 -99.99 -9.99
2018/01/17 16:06 EST    1.08   1.25 -999 -999 -999  24.0  32.3 1025.0 -9.9 -9.999 -99.9 -99.99 -9.99
2018/01/17 16:12 EST    0.99   1.17 -999 -999 -999  23.9  32.2 1024.9 -9.9 -9.999 -99.9 -99.99 -9.99
2018/01/17 16:18 EST    0.91   1.09 -999 -999 -999  23.9  32.2 1024.7 -9.9 -9.999 -99.9 -99.99 -9.99
2018/01/17 16:24 EST    0.82   1.01 -999 -999 -999  23.9  32.2 1024.7 -9.9 -9.999 -99.9 -99.99 -9.99
2018/01/17 16:30 EST    0.74   0.93 -999 -999 -999  23.9  32.2 1024.8 -9.9 -9.999 -99.9 -99.99 -9.99
2018/01/17 16:36 EST    0.66   0.84 -999 -999 -999  23.8  32.2 1024.8 -9.9 -9.999 -99.9 -99.99 -9.99
2018/01/17 16:42 EST    0.58   0.75 -999 -999 -999  23.9  32.2 1024.7 -9.9 -9.999 -99.9 -99.99 -9.99
2018/01/17 16:48 EST    0.50   0.69 -999 -999 -999  23.8  32.2 1024.8 -9.9 -9.999 -99.9 -99.99 -9.99
2018/01/17 16:54 EST    0.42   0.63 -999 -999 -999  23.7  32.3 1024.6 -9.9 -9.999 -99.9 -99.99 -9.99
2018/01/17 17:00 EST    0.34   0.55 -999 -999 -999  23.7  32.3 1024.6 -9.9 -9.999 -99.9 -99.99 -9.99
2018/01/17 17:06 EST    0.27   0.50 -999 -999 -999  23.6  32.3 1024.5 -9.9 -9.999 -99.9 -99.99 -9.99
2018/01/17 17:12 EST    0.20   0.42 -999 -999 -999  23.6  32.3 1024.5 -9.9 -9.999 -99.9 -99.99 -9.99
2018/01/17 17:18 EST    0.13   0.36 -999 -999 -999  23.6  32.3 1024.4 -9.9 -9.999 -99.9 -99.99 -9.99
2018/01/17 17:24 EST    0.07   0.29 -999 -999 -999  23.4  32.3 1024.5 -9.9 -9.999 -99.9 -99.99 -9.99
2018/01/17 17:30 EST    0.01   0.26 -999 -999 -999  23.3  32.5 1024.5 -9.9 -9.999 -99.9 -99.99 -9.99
2018/01/17 17:36 EST   -0.05   0.20 -999 -999 -999  23.4  32.4 1024.5 -9.9 -9.999 -99.9 -99.99 -9.99
2018/01/17 17:42 EST   -0.09   0.14 -999 -999 -999  23.3  32.4 1024.5 -9.9 -9.999 -99.9 -99.99 -9.99
2018/01/17 17:48 EST   -0.13   0.10 -999 -999 -999  23.4  32.4 1024.7 -9.9 -9.999 -99.9 -99.99 -9.99
2018/01/17 17:54 EST   -0.16   0.06 -999 -999 -999  23.4  32.3 1024.5 -9.9 -9.999 -99.9 -99.99 -9.99
2018/01/17 18:00 EST   -0.19   0.01 -999 -999 -999  23.2  32.3 1024.6 -9.9 -9.999 -99.9 -99.99 -9.99
2018/01/17 18:06 EST   -0.20  -0.05 -999 -999 -999  23.2  32.3 1024.4 -9.9 -9.999 -99.9 -99.99 -9.99
2018/01/17 18:12 EST   -0.21  -0.11 -999 -999 -999  23.3  32.3 1024.5 -9.9 -9.999 -99.9 -99.99 -9.99
2018/01/17 18:18 EST   -0.20  -0.15 -999 -999 -999  23.2  32.3 1024.6 -9.9 -9.999 -99.9 -99.99 -9.99
2018/01/17 18:24 EST   -0.19  -0.18 -999 -999 -999  23.2  32.3 1024.6 -9.9 -9.999 -99.9 -99.99 -9.99
2018/01/17 18:30 EST   -0.16  -0.21 -999 -999 -999  23.2  32.3 1024.8 -9.9 -9.999 -99.9 -99.99 -9.99
2018/01/17 18:36 EST   -0.12  -0.22 -999 -999 -999  23.2  32.3 1025.0 -9.9 -9.999 -99.9 -99.99 -9.99
2018/01/17 18:42 EST   -0.07  -0.24 -999 -999 -999  23.3  32.3 1025.2 -9.9 -9.999 -99.9 -99.99 -9.99
2018/01/17 18:48 EST   -0.01  -0.24 -999 -999 -999  23.4  32.3 1025.1 -9.9 -9.999 -99.9 -99.99 -9.99
2018/01/17 18:54 EST    0.06  -0.23 -999 -999 -999  23.3  32.3 1025.0 -9.9 -9.999 -99.9 -99.99 -9.99
2018/01/17 19:00 EST    0.14  -0.20 -999 -999 -999  23.4  32.3 1024.8 -9.9 -9.999 -99.9 -99.99 -9.99
2018/01/17 19:06 EST    0.23  -0.26 -999 -999 -999  23.3  32.3 1024.8 -9.9 -9.999 -99.9 -99.99 -9.99
2018/01/17 19:12 EST    0.33  -0.13 -999 -999 -999  23.4  32.3 1024.6 -9.9 -9.999 -99.9 -99.99 -9.99
2018/01/17 19:18 EST    0.44  -0.07 -999 -999 -999  23.4  32.3 1024.5 -9.9 -9.999 -99.9 -99.99 -9.99
2018/01/17 19:24 EST    0.55   0.06 -999 -999 -999  23.3  32.4 1024.2 -9.9 -9.999 -99.9 -99.99 -9.99
2018/01/17 19:30 EST    0.68   0.15 -999 -999 -999  23.3  32.4 1024.0 -9.9 -9.999 -99.9 -99.99 -9.99
2018/01/17 19:36 EST    0.80   0.33 -999 -999 -999  23.3  32.4 1024.2 -9.9 -9.999 -99.9 -99.99 -9.99
2018/01/17 19:42 EST    0.94   0.47 -999 -999 -999  23.3  32.5 1024.3 -9.9 -9.999 -99.9 -99.99 -9.99
2018/01/17 19:48 EST    1.08   0.64 -999 -999 -999  23.3  32.5 1024.3 -9.9 -9.999 -99.9 -99.99 -9.99
2018/01/17 19:54 EST    1.22   0.83 -999 -999 -999  23.3  32.5 1024.2 -9.9 -9.999 -99.9 -99.99 -9.99
2018/01/17 20:00 EST    1.36   0.97 -999 -999 -999  23.3  32.5 1024.0 -9.9 -9.999 -99.9 -99.99 -9.99
2018/01/17 20:06 EST    1.50   1.14 -999 -999 -999  23.3  32.5 1024.3 -9.9 -9.999 -99.9 -99.99 -9.99
2018/01/17 20:12 EST    1.65   1.30 -999 -999 -999  23.1  32.5 1024.3 -9.9 -9.999 -99.9 -99.99 -9.99
2018/01/17 20:18 EST    1.79   1.45 -999 -999 -999  23.0  32.4 1024.1 -9.9 -9.999 -99.9 -99.99 -9.99
2018/01/17 20:24 EST    1.93   1.59 -999 -999 -999  23.0  32.4 1024.3 -9.9 -9.999 -99.9 -99.99 -9.99
2018/01/17 20:30 EST    2.07   1.69 -999 -999 -999  23.1  32.4 1024.3 -9.9 -9.999 -99.9 -99.99 -9.99
2018/01/17 20:36 EST    2.21   1.84 -999 -999 -999  22.8  32.4 1024.4 -9.9 -9.999 -99.9 -99.99 -9.99
2018/01/17 20:42 EST    2.35   1.99 -999 -999 -999  22.8  32.4 1024.6 -9.9 -9.999 -99.9 -99.99 -9.99
2018/01/17 20:48 EST    2.48   2.12 -999 -999 -999  22.8  32.4 1024.5 -9.9 -9.999 -99.9 -99.99 -9.99
2018/01/17 20:54 EST    2.61   2.25 -999 -999 -999  22.7  32.4 1024.6 -9.9 -9.999 -99.9 -99.99 -9.99
2018/01/17 21:00 EST    2.74   2.39 -999 -999 -999  22.7  32.4 1024.4 -9.9 -9.999 -99.9 -99.99 -9.99
2018/01/17 21:06 EST    2.86   2.50 -999 -999 -999  22.7  32.3 1024.5 -9.9 -9.999 -99.9 -99.99 -9.99
2018/01/17 21:12 EST    2.98   2.58 -999 -999 -999  22.5  32.3 1024.3 -9.9 -9.999 -99.9 -99.99 -9.99
2018/01/17 21:18 EST    3.10   2.74 -999 -999 -999  22.4  32.3 1024.4 -9.9 -9.999 -99.9 -99.99 -9.99
2018/01/17 21:24 EST    3.21   2.86 -999 -999 -999  22.3  32.3 1024.6 -9.9 -9.999 -99.9 -99.99 -9.99
2018/01/17 21:30 EST    3.32   3.00 -999 -999 -999  22.2  32.3 1024.4 -9.9 -9.999 -99.9 -99.99 -9.99
2018/01/17 21:36 EST    3.43   3.11 -999 -999 -999  22.1  32.3 1024.8 -9.9 -9.999 -99.9 -99.99 -9.99
2018/01/17 21:42 EST    3.53   3.23 -999 -999 -999  22.0  32.3 1024.5 -9.9 -9.999 -99.9 -99.99 -9.99
2018/01/17 21:48 EST    3.63   3.33 -999 -999 -999  22.0  32.3 1024.5 -9.9 -9.999 -99.9 -99.99 -9.99
2018/01/17 21:54 EST    3.73   3.44 -999 -999 -999  21.8  32.3 1024.7 -9.9 -9.999 -99.9 -99.99 -9.99
2018/01/17 22:00 EST    3.82   3.54 -999 -999 -999  21.7  32.3 1024.3 -9.9 -9.999 -99.9 -99.99 -9.99
2018/01/17 22:06 EST    3.91   3.61 -999 -999 -999  21.7  32.3 1024.3 -9.9 -9.999 -99.9 -99.99 -9.99
2018/01/17 22:12 EST    4.00   3.73 -999 -999 -999  21.6  32.3 1024.5 -9.9 -9.999 -99.9 -99.99 -9.99
2018/01/17 22:18 EST    4.09   3.74 -999 -999 -999  21.4  32.3 1024.3 -9.9 -9.999 -99.9 -99.99 -9.99
2018/01/17 22:24 EST    4.17   3.87 -999 -999 -999  21.5  32.3 1024.1 -9.9 -9.999 -99.9 -99.99 -9.99
2018/01/17 22:30 EST    4.24   3.93 -999 -999 -999  21.3  32.3 1024.4 -9.9 -9.999 -99.9 -99.99 -9.99
2018/01/17 22:36 EST    4.32   3.99 -999 -999 -999  21.3  32.3 1024.3 -9.9 -9.999 -99.9 -99.99 -9.99
2018/01/17 22:42 EST    4.39   4.07 -999 -999 -999  21.1  32.2 1024.3 -9.9 -9.999 -99.9 -99.99 -9.99
2018/01/17 22:48 EST    4.45   4.10 -999 -999 -999  21.1  32.2 1024.3 -9.9 -9.999 -99.9 -99.99 -9.99
2018/01/17 22:54 EST    4.51   4.19 -999 -999 -999  21.0  32.2 1024.2 -9.9 -9.999 -99.9 -99.99 -9.99
2018/01/17 23:00 EST    4.56   4.23 -999 -999 -999  20.9  32.2 1024.3 -9.9 -9.999 -99.9 -99.99 -9.99
2018/01/17 23:06 EST    4.61   4.23 -999 -999 -999  20.9  32.2 1024.3 -9.9 -9.999 -99.9 -99.99 -9.99
2018/01/17 23:12 EST    4.65   4.29 -999 -999 -999  20.7  32.2 1024.2 -9.9 -9.999 -99.9 -99.99 -9.99
2018/01/17 23:18 EST    4.69   4.29 -999 -999 -999  20.7  32.2 1024.2 -9.9 -9.999 -99.9 -99.99 -9.99
2018/01/17 23:24 EST    4.71   4.35 -999 -999 -999  20.6  32.2 1024.3 -9.9 -9.999 -99.9 -99.99 -9.99
2018/01/17 23:30 EST    4.74   4.34 -999 -999 -999  20.7  32.2 1024.3 -9.9 -9.999 -99.9 -99.99 -9.99
2018/01/17 23:36 EST    4.75   4.37 -999 -999 -999  20.5  32.2 1024.3 -9.9 -9.999 -99.9 -99.99 -9.99
2018/01/17 23:42 EST    4.75   4.36 -999 -999 -999  20.4  32.2 1024.2 -9.9 -9.999 -99.9 -99.99 -9.99
2018/01/17 23:48 EST    4.75   4.35 -999 -999 -999  20.3  32.2 1024.1 -9.9 -9.999 -99.9 -99.99 -9.99
2018/01/17 23:54 EST    4.74   4.33 -999 -999 -999  20.3  32.2 1024.1 -9.9 -9.999 -99.9 -99.99 -9.99
2018/01/18 00:00 EST    4.72   4.31 -999 -999 -999  20.0  32.2 1024.0 -9.9 -9.999 -99.9 -99.99 -9.99
2018/01/18 00:06 EST    4.69   4.25 -999 -999 -999  19.9  32.2 1023.9 -9.9 -9.999 -99.9 -99.99 -9.99
2018/01/18 00:12 EST    4.66   4.20 -999 -999 -999  19.7  32.2 1023.8 -9.9 -9.999 -99.9 -99.99 -9.99
2018/01/18 00:18 EST    4.61   4.15 -999 -999 -999  19.6  32.2 1023.7 -9.9 -9.999 -99.9 -99.99 -9.99
2018/01/18 00:24 EST    4.56   4.07 -999 -999 -999  19.7  32.2 1023.7 -9.9 -9.999 -99.9 -99.99 -9.99
2018/01/18 00:30 EST    4.51   4.02 -999 -999 -999  19.6  32.2 1023.8 -9.9 -9.999 -99.9 -99.99 -9.99
2018/01/18 00:36 EST    4.44   3.92 -999 -999 -999  19.5  32.2 1023.7 -9.9 -9.999 -99.9 -99.99 -9.99
2018/01/18 00:42 EST    4.37   3.87 -999 -999 -999  19.3  32.2 1023.4 -9.9 -9.999 -99.9 -99.99 -9.99
2018/01/18 00:48 EST    4.29   3.80 -999 -999 -999  19.4  32.2 1023.5 -9.9 -9.999 -99.9 -99.99 -9.99
2018/01/18 00:54 EST    4.20   3.72 -999 -999 -999  19.3  32.2 1023.4 -9.9 -9.999 -99.9 -99.99 -9.99
2018/01/18 01:00 EST    4.11   3.66 -999 -999 -999  19.3  32.2 1023.3 -9.9 -9.999 -99.9 -99.99 -9.99
2018/01/18 01:06 EST    4.02   3.54 -999 -999 -999  19.1  32.2 1023.0 -9.9 -9.999 -99.9 -99.99 -9.99
2018/01/18 01:12 EST    3.91   3.51 -999 -999 -999  19.1  32.1 1022.9 -9.9 -9.999 -99.9 -99.99 -9.99
2018/01/18 01:18 EST    3.81   3.37 -999 -999 -999  19.1  32.1 1022.6 -9.9 -9.999 -99.9 -99.99 -9.99
2018/01/18 01:24 EST    3.70   3.24 -999 -999 -999  18.8  32.1 1022.6 -9.9 -9.999 -99.9 -99.99 -9.99
2018/01/18 01:30 EST    3.59   3.18 -999 -999 -999  18.8  32.0 1022.6 -9.9 -9.999 -99.9 -99.99 -9.99
2018/01/18 01:36 EST    3.47   3.05 -999 -999 -999  18.6  32.0 1022.7 -9.9 -9.999 -99.9 -99.99 -9.99
2018/01/18 01:42 EST    3.35   3.03 -999 -999 -999  18.5  32.0 1022.7 -9.9 -9.999 -99.9 -99.99 -9.99
2018/01/18 01:48 EST    3.23   2.88 -999 -999 -999  18.7  32.0 1022.8 -9.9 -9.999 -99.9 -99.99 -9.99
2018/01/18 01:54 EST    3.11   2.76 -999 -999 -999  18.6  32.0 1022.7 -9.9 -9.999 -99.9 -99.99 -9.99
2018/01/18 02:00 EST    2.98   2.67 -999 -999 -999  18.5  31.9 1022.5 -9.9 -9.999 -99.9 -99.99 -9.99
2018/01/18 02:06 EST    2.86   2.56 -999 -999 -999  18.4  31.9 1022.4 -9.9 -9.999 -99.9 -99.99 -9.99
2018/01/18 02:12 EST    2.73   2.49 -999 -999 -999  18.2  31.9 1022.1 -9.9 -9.999 -99.9 -99.99 -9.99
2018/01/18 02:18 EST    2.61   2.35 -999 -999 -999  18.1  31.9 1021.8 -9.9 -9.999 -99.9 -99.99 -9.99
2018/01/18 02:24 EST    2.48   2.25 -999 -999 -999  18.1  31.9 1021.5 -9.9 -9.999 -99.9 -99.99 -9.99
2018/01/18 02:30 EST    2.36   2.14 -999 -999 -999  18.1  31.9 1021.1 -9.9 -9.999 -99.9 -99.99 -9.99
2018/01/18 02:36 EST    2.24   2.01 -999 -999 -999  18.2  31.9 1020.6 -9.9 -9.999 -99.9 -99.99 -9.99
2018/01/18 02:42 EST    2.12   1.95 -999 -999 -999  18.4  31.9 1020.2 -9.9 -9.999 -99.9 -99.99 -9.99
2018/01/18 02:48 EST    2.00   1.81 -999 -999 -999  18.6  31.9 1019.6 -9.9 -9.999 -99.9 -99.99 -9.99
2018/01/18 02:54 EST    1.88   1.73 -999 -999 -999  18.8  31.9 1018.9 -9.9 -9.999 -99.9 -99.99 -9.99
2018/01/18 03:00 EST    1.77   1.61 -999 -999 -999  18.9  31.9 1019.2 -9.9 -9.999 -99.9 -99.99 -9.99
2018/01/18 03:06 EST    1.66   1.49 -999 -999 -999  19.1  31.9 1020.0 -9.9 -9.999 -99.9 -99.99 -9.99
2018/01/18 03:12 EST    1.55   1.41 -999 -999 -999  19.2  31.9 1021.1 -9.9 -9.999 -99.9 -99.99 -9.99
2018/01/18 03:18 EST    1.44   1.30 -999 -999 -999  19.3  31.9 1021.2 -9.9 -9.999 -99.9 -99.99 -9.99
2018/01/18 03:24 EST    1.34   1.23 -999 -999 -999  19.2  31.9 1020.8 -9.9 -9.999 -99.9 -99.99 -9.99
2018/01/18 03:30 EST    1.24   1.16 -999 -999 -999  19.2  31.9 1020.6 -9.9 -9.999 -99.9 -99.99 -9.99
2018/01/18 03:36 EST    1.15   1.06 -999 -999 -999  19.2  31.9 1020.6 -9.9 -9.999 -99.9 -99.99 -9.99
2018/01/18 03:42 EST    1.06   0.99 -999 -999 -999  19.2  31.9 1020.4 -9.9 -9.999 -99.9 -99.99 -9.99
2018/01/18 03:48 EST    0.97   0.92 -999 -999 -999  19.3  31.9 1020.1 -9.9 -9.999 -99.9 -99.99 -9.99
2018/01/18 03:54 EST    0.88   0.85 -999 -999 -999  19.4  31.9 1020.5 -9.9 -9.999 -99.9 -99.99 -9.99
2018/01/18 04:00 EST    0.80   0.65 -999 -999 -999  19.3  31.9 1020.5 -9.9 -9.999 -99.9 -99.99 -9.99
2018/01/18 04:06 EST    0.72   0.69 -999 -999 -999  19.3  31.8 1020.0 -9.9 -9.999 -99.9 -99.99 -9.99
2018/01/18 04:12 EST    0.65   0.58 -999 -999 -999  19.2  31.7 1019.6 -9.9 -9.999 -99.9 -99.99 -9.99
2018/01/18 04:18 EST    0.58   0.53 -999 -999 -999  19.0  31.7 1019.7 -9.9 -9.999 -99.9 -99.99 -9.99
2018/01/18 04:24 EST    0.51   0.47 -999 -999 -999  19.0  31.6 1019.8 -9.9 -9.999 -99.9 -99.99 -9.99
2018/01/18 04:30 EST    0.45   0.42 -999 -999 -999  18.9  31.6 1019.4 -9.9 -9.999 -99.9 -99.99 -9.99
2018/01/18 04:36 EST    0.38   0.35 -999 -999 -999  18.8  31.6 1019.2 -9.9 -9.999 -99.9 -99.99 -9.99
2018/01/18 04:42 EST    0.32   0.26 -999 -999 -999  18.8  31.6 1018.9 -9.9 -9.999 -99.9 -99.99 -9.99
2018/01/18 04:48 EST    0.26   0.17 -999 -999 -999  18.8  31.7 1018.7 -9.9 -9.999 -99.9 -99.99 -9.99
2018/01/18 04:54 EST    0.21   0.11 -999 -999 -999  18.9  31.7 1018.9 -9.9 -9.999 -99.9 -99.99 -9.99
2018/01/18 05:00 EST    0.15   0.05 -999 -999 -999  18.8  31.7 1019.1 -9.9 -9.999 -99.9 -99.99 -9.99
2018/01/18 05:06 EST    0.10  -0.00 -999 -999 -999  18.9  31.7 1019.6 -9.9 -9.999 -99.9 -99.99 -9.99
2018/01/18 05:12 EST    0.05  -0.06 -999 -999 -999  19.0  31.8 1019.7 -9.9 -9.999 -99.9 -99.99 -9.99
2018/01/18 05:18 EST    0.01  -0.12 -999 -999 -999  19.0  31.8 1020.1 -9.9 -9.999 -99.9 -99.99 -9.99
2018/01/18 05:24 EST   -0.03  -0.19 -999 -999 -999  19.1  31.8 1020.5 -9.9 -9.999 -99.9 -99.99 -9.99
2018/01/18 05:30 EST   -0.07  -0.22 -999 -999 -999  19.1  31.7 1020.6 -9.9 -9.999 -99.9 -99.99 -9.99
2018/01/18 05:36 EST   -0.11  -0.28 -999 -999 -999  19.2  31.7 1020.7 -9.9 -9.999 -99.9 -99.99 -9.99
2018/01/18 05:42 EST   -0.14  -0.35 -999 -999 -999  19.2  31.7 1020.8 -9.9 -9.999 -99.9 -99.99 -9.99
2018/01/18 05:48 EST   -0.16  -0.37 -999 -999 -999  19.1  31.7 1020.8 -9.9 -9.999 -99.9 -99.99 -9.99
2018/01/18 05:54 EST   -0.18  -0.42 -999 -999 -999  18.7  31.7 1020.9 -9.9 -9.999 -99.9 -99.99 -9.99
2018/01/18 06:00 EST   -0.19  -0.45 -999 -999 -999  18.5  31.7 1021.0 -9.9 -9.999 -99.9 -99.99 -9.99
2018/01/18 06:06 EST   -0.20  -0.48 -999 -999 -999  18.4  31.7 1021.2 -9.9 -9.999 -99.9 -99.99 -9.99
2018/01/18 06:12 EST   -0.19  -0.51 -999 -999 -999  18.3  31.7 1021.0 -9.9 -9.999 -99.9 -99.99 -9.99
2018/01/18 06:18 EST   -0.18  -0.53 -999 -999 -999  18.7  31.7 1020.9 -9.9 -9.999 -99.9 -99.99 -9.99
2018/01/18 06:24 EST   -0.16  -0.53 -999 -999 -999  18.7  31.7 1021.1 -9.9 -9.999 -99.9 -99.99 -9.99
2018/01/18 06:30 EST   -0.13  -0.52 -999 -999 -999  18.6  31.7 1021.1 -9.9 -9.999 -99.9 -99.99 -9.99
2018/01/18 06:36 EST   -0.09  -0.50 -999 -999 -999  18.1  31.7 1021.2 -9.9 -9.999 -99.9 -99.99 -9.99
2018/01/18 06:42 EST   -0.04  -0.46 -999 -999 -999  18.1  31.7 1021.0 -9.9 -9.999 -99.9 -99.99 -9.99
2018/01/18 06:48 EST    0.02  -0.41 -999 -999 -999  18.2  31.7 1021.0 -9.9 -9.999 -99.9 -99.99 -9.99
2018/01/18 06:54 EST    0.09  -0.33 -999 -999 -999  18.0  31.7 1020.8 -9.9 -9.999 -99.9 -99.99 -9.99
2018/01/18 07:00 EST    0.17  -0.23 -999 -999 -999  17.6  31.7 1020.6 -9.9 -9.999 -99.9 -99.99 -9.99
2018/01/18 07:06 EST    0.26 -99.99 -999 -999 -999 -99.9 -99.9 -999.9 -9.9 -9.999 -99.9 -99.99 -9.99
2018/01/18 07:12 EST    0.36 -99.99 -999 -999 -999 -99.9 -99.9 -999.9 -9.9 -9.999 -99.9 -99.99 -9.99
2018/01/18 07:18 EST    0.48 -99.99 -999 -999 -999 -99.9 -99.9 -999.9 -9.9 -9.999 -99.9 -99.99 -9.99
2018/01/18 07:24 EST    0.60 -99.99 -999 -999 -999 -99.9 -99.9 -999.9 -9.9 -9.999 -99.9 -99.99 -9.99
2018/01/18 07:30 EST    0.73 -99.99 -999 -999 -999 -99.9 -99.9 -999.9 -9.9 -9.999 -99.9 -99.99 -9.99
2018/01/18 07:36 EST    0.87 -99.99 -999 -999 -999 -99.9 -99.9 -999.9 -9.9 -9.999 -99.9 -99.99 -9.99
2018/01/18 07:42 EST    1.02 -99.99 -999 -999 -999 -99.9 -99.9 -999.9 -9.9 -9.999 -99.9 -99.99 -9.99
2018/01/18 07:48 EST    1.17 -99.99 -999 -999 -999 -99.9 -99.9 -999.9 -9.9 -9.999 -99.9 -99.99 -9.99
2018/01/18 07:54 EST    1.33 -99.99 -999 -999 -999 -99.9 -99.9 -999.9 -9.9 -9.999 -99.9 -99.99 -9.99
2018/01/18 08:00 EST    1.49 -99.99 -999 -999 -999 -99.9 -99.9 -999.9 -9.9 -9.999 -99.9 -99.99 -9.99
2018/01/18 08:06 EST    1.66 -99.99 -999 -999 -999 -99.9 -99.9 -999.9 -9.9 -9.999 -99.9 -99.99 -9.99
2018/01/18 08:12 EST    1.83 -99.99 -999 -999 -999 -99.9 -99.9 -999.9 -9.9 -9.999 -99.9 -99.99 -9.99
2018/01/18 08:18 EST    2.00 -99.99 -999 -999 -999 -99.9 -99.9 -999.9 -9.9 -9.999 -99.9 -99.99 -9.99
2018/01/18 08:24 EST    2.18 -99.99 -999 -999 -999 -99.9 -99.9 -999.9 -9.9 -9.999 -99.9 -99.99 -9.99
2018/01/18 08:30 EST    2.35 -99.99 -999 -999 -999 -99.9 -99.9 -999.9 -9.9 -9.999 -99.9 -99.99 -9.99
2018/01/18 08:36 EST    2.52 -99.99 -999 -999 -999 -99.9 -99.9 -999.9 -9.9 -9.999 -99.9 -99.99 -9.99
2018/01/18 08:42 EST    2.68 -99.99 -999 -999 -999 -99.9 -99.9 -999.9 -9.9 -9.999 -99.9 -99.99 -9.99
2018/01/18 08:48 EST    2.85 -99.99 -999 -999 -999 -99.9 -99.9 -999.9 -9.9 -9.999 -99.9 -99.99 -9.99
2018/01/18 08:54 EST    3.01 -99.99 -999 -999 -999 -99.9 -99.9 -999.9 -9.9 -9.999 -99.9 -99.99 -9.99
2018/01/18 09:00 EST    3.17 -99.99 -999 -999 -999 -99.9 -99.9 -999.9 -9.9 -9.999 -99.9 -99.99 -9.99
2018/01/18 09:06 EST    3.32 -99.99 -999 -999 -999 -99.9 -99.9 -999.9 -9.9 -9.999 -99.9 -99.99 -9.99
2018/01/18 09:12 EST    3.47 -99.99 -999 -999 -999 -99.9 -99.9 -999.9 -9.9 -9.999 -99.9 -99.99 -9.99
2018/01/18 09:18 EST    3.61 -99.99 -999 -999 -999 -99.9 -99.9 -999.9 -9.9 -9.999 -99.9 -99.99 -9.99
2018/01/18 09:24 EST    3.74 -99.99 -999 -999 -999 -99.9 -99.9 -999.9 -9.9 -9.999 -99.9 -99.99 -9.99
2018/01/18 09:30 EST    3.87 -99.99 -999 -999 -999 -99.9 -99.9 -999.9 -9.9 -9.999 -99.9 -99.99 -9.99
2018/01/18 09:36 EST    4.00 -99.99 -999 -999 -999 -99.9 -99.9 -999.9 -9.9 -9.999 -99.9 -99.99 -9.99
2018/01/18 09:42 EST    4.12 -99.99 -999 -999 -999 -99.9 -99.9 -999.9 -9.9 -9.999 -99.9 -99.99 -9.99
2018/01/18 09:48 EST    4.23 -99.99 -999 -999 -999 -99.9 -99.9 -999.9 -9.9 -9.999 -99.9 -99.99 -9.99
2018/01/18 09:54 EST    4.34 -99.99 -999 -999 -999 -99.9 -99.9 -999.9 -9.9 -9.999 -99.9 -99.99 -9.99
2018/01/18 10:00 EST    4.44 -99.99 -999 -999 -999 -99.9 -99.9 -999.9 -9.9 -9.999 -99.9 -99.99 -9.99
2018/01/18 10:06 EST    4.54 -99.99 -999 -999 -999 -99.9 -99.9 -999.9 -9.9 -9.999 -99.9 -99.99 -9.99
2018/01/18 10:12 EST    4.64 -99.99 -999 -999 -999 -99.9 -99.9 -999.9 -9.9 -9.999 -99.9 -99.99 -9.99
2018/01/18 10:18 EST    4.72 -99.99 -999 -999 -999 -99.9 -99.9 -999.9 -9.9 -9.999 -99.9 -99.99 -9.99
2018/01/18 10:24 EST    4.81 -99.99 -999 -999 -999 -99.9 -99.9 -999.9 -9.9 -9.999 -99.9 -99.99 -9.99
2018/01/18 10:30 EST    4.89 -99.99 -999 -999 -999 -99.9 -99.9 -999.9 -9.9 -9.999 -99.9 -99.99 -9.99
2018/01/18 10:36 EST    4.96 -99.99 -999 -999 -999 -99.9 -99.9 -999.9 -9.9 -9.999 -99.9 -99.99 -9.99
2018/01/18 10:42 EST    5.03 -99.99 -999 -999 -999 -99.9 -99.9 -999.9 -9.9 -9.999 -99.9 -99.99 -9.99
2018/01/18 10:48 EST    5.10 -99.99 -999 -999 -999 -99.9 -99.9 -999.9 -9.9 -9.999 -99.9 -99.99 -9.99
2018/01/18 10:54 EST    5.16 -99.99 -999 -999 -999 -99.9 -99.9 -999.9 -9.9 -9.999 -99.9 -99.99 -9.99
2018/01/18 11:00 EST    5.22 -99.99 -999 -999 -999 -99.9 -99.9 -999.9 -9.9 -9.999 -99.9 -99.99 -9.99
2018/01/18 11:06 EST    5.27 -99.99 -999 -999 -999 -99.9 -99.9 -999.9 -9.9 -9.999 -99.9 -99.99 -9.99
2018/01/18 11:12 EST    5.32 -99.99 -999 -999 -999 -99.9 -99.9 -999.9 -9.9 -9.999 -99.9 -99.99 -9.99
2018/01/18 11:18 EST    5.36 -99.99 -999 -999 -999 -99.9 -99.9 -999.9 -9.9 -9.999 -99.9 -99.99 -9.99
2018/01/18 11:24 EST    5.39 -99.99 -999 -999 -999 -99.9 -99.9 -999.9 -9.9 -9.999 -99.9 -99.99 -9.99
2018/01/18 11:30 EST    5.42 -99.99 -999 -999 -999 -99.9 -99.9 -999.9 -9.9 -9.999 -99.9 -99.99 -9.99
2018/01/18 11:36 EST    5.44 -99.99 -999 -999 -999 -99.9 -99.9 -999.9 -9.9 -9.999 -99.9 -99.99 -9.99
2018/01/18 11:42 EST    5.46 -99.99 -999 -999 -999 -99.9 -99.9 -999.9 -9.9 -9.999 -99.9 -99.99 -9.99
2018/01/18 11:48 EST    5.47 -99.99 -999 -999 -999 -99.9 -99.9 -999.9 -9.9 -9.999 -99.9 -99.99 -9.99
2018/01/18 11:54 EST    5.47 -99.99 -999 -999 -999 -99.9 -99.9 -999.9 -9.9 -9.999 -99.9 -99.99 -9.99
2018/01/18 12:00 EST    5.46 -99.99 -999 -999 -999 -99.9 -99.9 -999.9 -9.9 -9.999 -99.9 -99.99 -9.99
2018/01/18 12:06 EST    5.45 -99.99 -999 -999 -999 -99.9 -99.9 -999.9 -9.9 -9.999 -99.9 -99.99 -9.99
2018/01/18 12:12 EST    5.43 -99.99 -999 -999 -999 -99.9 -99.9 -999.9 -9.9 -9.999 -99.9 -99.99 -9.99
2018/01/18 12:18 EST    5.40 -99.99 -999 -999 -999 -99.9 -99.9 -999.9 -9.9 -9.999 -99.9 -99.99 -9.99
2018/01/18 12:24 EST    5.37 -99.99 -999 -999 -999 -99.9 -99.9 -999.9 -9.9 -9.999 -99.9 -99.99 -9.99
2018/01/18 12:30 EST    5.33 -99.99 -999 -999 -999 -99.9 -99.9 -999.9 -9.9 -9.999 -99.9 -99.99 -9.99
2018/01/18 12:36 EST    5.28 -99.99 -999 -999 -999 -99.9 -99.9 -999.9 -9.9 -9.999 -99.9 -99.99 -9.99
2018/01/18 12:42 EST    5.22 -99.99 -999 -999 -999 -99.9 -99.9 -999.9 -9.9 -9.999 -99.9 -99.99 -9.99
2018/01/18 12:48 EST    5.15 -99.99 -999 -999 -999 -99.9 -99.9 -999.9 -9.9 -9.999 -99.9 -99.99 -9.99
2018/01/18 12:54 EST    5.08 -99.99 -999 -999 -999 -99.9 -99.9 -999.9 -9.9 -9.999 -99.9 -99.99 -9.99
2018/01/18 13:00 EST    5.01 -99.99 -999 -999 -999 -99.9 -99.9 -999.9 -9.9 -9.999 -99.9 -99.99 -9.99

Revised: 10/15/2013
NOAA / National Ocean Service
Web site owner: Center for Operational Oceanographic Products and Services